createdAt,value
2022-08-01T00:00:54.531Z,99.90
2022-08-01T00:03:22.558Z,99.90
2022-08-01T00:05:50.579Z,99.90
2022-08-01T00:08:18.585Z,99.90
2022-08-01T00:10:46.603Z,99.90
2022-08-01T00:13:15.953Z,99.90
2022-08-01T00:15:51.775Z,99.90
2022-08-01T00:18:22.527Z,99.90
2022-08-01T00:20:50.601Z,99.90
2022-08-01T00:23:18.615Z,99.90
2022-08-01T00:25:46.709Z,99.90
2022-08-01T00:28:17.279Z,99.90
2022-08-01T00:30:45.287Z,99.90
2022-08-01T00:33:13.279Z,99.90
2022-08-01T00:35:41.293Z,99.90
2022-08-01T00:38:09.285Z,99.90
2022-08-01T00:40:37.274Z,99.90
2022-08-01T00:43:05.343Z,99.90
2022-08-01T00:45:34.711Z,99.90
2022-08-01T00:48:02.721Z,99.90
2022-08-01T00:50:30.741Z,99.90
2022-08-01T00:52:59.930Z,99.90
2022-08-01T00:55:28.717Z,99.90
2022-08-01T00:58:04.918Z,99.90
2022-08-01T01:00:53.271Z,99.90
2022-08-01T01:03:55.915Z,99.90
2022-08-01T01:06:16.978Z,99.90
2022-08-01T01:08:47.927Z,99.90
2022-08-01T01:11:20.077Z,99.90
2022-08-01T01:13:52.238Z,99.90
2022-08-01T01:16:22.845Z,99.90
2022-08-01T01:18:53.109Z,99.90
2022-08-01T01:21:35.075Z,99.90
2022-08-01T01:24:09.973Z,99.90
2022-08-01T01:26:42.086Z,99.90
2022-08-01T01:29:15.526Z,99.90
2022-08-01T01:31:45.500Z,99.90
2022-08-01T01:34:14.724Z,99.90
2022-08-01T01:36:43.952Z,99.90
2022-08-01T01:39:12.389Z,99.90
2022-08-01T01:41:40.850Z,99.90
2022-08-01T01:44:10.270Z,99.90
2022-08-01T01:46:39.720Z,99.90
2022-08-01T01:49:11.190Z,99.90
2022-08-01T01:51:39.978Z,99.90
2022-08-01T01:54:09.261Z,99.90
2022-08-01T01:56:49.492Z,99.90
2022-08-01T01:59:19.446Z,99.90
2022-08-01T02:02:04.997Z,99.90
2022-08-01T02:04:35.133Z,99.90
2022-08-01T02:07:03.732Z,99.90
2022-08-01T02:09:33.015Z,99.90
2022-08-01T02:12:07.995Z,99.90
2022-08-01T02:14:37.171Z,99.90
2022-08-01T02:17:06.747Z,99.90
2022-08-01T02:19:38.407Z,99.90
2022-08-01T02:22:08.365Z,99.90
2022-08-01T02:24:38.924Z,99.90
2022-08-01T02:27:08.988Z,99.90
2022-08-01T02:29:39.995Z,99.90
2022-08-01T02:32:10.757Z,99.90
2022-08-01T02:34:38.816Z,99.90
2022-08-01T02:37:07.684Z,99.90
2022-08-01T02:39:38.112Z,99.90
2022-08-01T02:42:07.712Z,99.90
2022-08-01T02:44:37.852Z,99.90
2022-08-01T02:47:05.958Z,99.90
2022-08-01T02:49:35.999Z,99.90
2022-08-01T02:52:06.412Z,99.90
2022-08-01T02:54:35.127Z,99.90
2022-08-01T02:57:04.968Z,99.90
2022-08-01T02:59:36.082Z,99.90
2022-08-01T03:02:07.088Z,99.90
2022-08-01T03:04:39.630Z,99.90
2022-08-01T03:07:10.030Z,99.90
2022-08-01T03:09:39.768Z,99.90
2022-08-01T03:12:10.312Z,99.90
2022-08-01T03:14:38.887Z,99.90
2022-08-01T03:17:07.990Z,99.90
2022-08-01T03:19:36.507Z,99.90
2022-08-01T03:22:07.592Z,99.90
2022-08-01T03:24:36.943Z,99.90
2022-08-01T03:27:05.878Z,99.90
2022-08-01T03:29:34.900Z,99.90
2022-08-01T03:32:03.785Z,99.90
2022-08-01T03:34:32.036Z,99.90
2022-08-01T03:37:03.918Z,99.90
2022-08-01T03:39:39.210Z,99.90
2022-08-01T03:42:09.926Z,99.90
2022-08-01T03:44:40.288Z,99.90
2022-08-01T03:47:09.605Z,99.90
2022-08-01T03:49:40.011Z,99.90
2022-08-01T03:52:09.340Z,99.90
2022-08-01T07:59:26.356Z,66.60
2022-08-01T08:01:54.517Z,64.90
2022-08-01T08:04:22.702Z,64.40
2022-08-01T08:06:50.742Z,62.00
2022-08-01T08:09:19.242Z,61.70
2022-08-01T08:11:48.320Z,61.30
2022-08-01T08:14:16.707Z,62.50
2022-08-01T08:16:46.434Z,56.80
2022-08-01T08:19:14.776Z,57.10
2022-08-01T08:21:42.924Z,57.50
2022-08-01T08:24:26.538Z,60.50
2022-08-01T08:26:55.757Z,61.10
2022-08-01T08:29:24.020Z,59.60
2022-08-01T08:31:53.966Z,58.80
2022-08-01T08:34:22.266Z,58.80
2022-08-01T08:36:50.317Z,57.70
2022-08-01T08:39:19.854Z,57.20
2022-08-01T08:41:49.164Z,57.60
2022-08-01T08:44:18.134Z,56.10
2022-08-01T08:46:47.669Z,55.80
2022-08-01T08:49:19.013Z,55.90
2022-08-01T08:51:49.318Z,53.60
2022-08-01T08:54:17.630Z,54.40
2022-08-01T08:56:46.306Z,53.10
2022-08-01T08:59:15.320Z,51.50
2022-08-01T09:01:43.315Z,52.60
2022-08-01T09:04:12.025Z,52.10
2022-08-01T09:06:41.941Z,51.20
2022-08-01T09:09:10.627Z,48.70
2022-08-01T09:11:38.852Z,48.10
2022-08-01T09:14:08.055Z,46.90
2022-08-01T09:16:36.796Z,46.40
2022-08-01T09:19:15.885Z,46.80
2022-08-01T09:21:59.280Z,46.60
2022-08-01T09:24:30.620Z,46.70
2022-08-01T09:26:59.630Z,46.10
2022-08-01T09:29:37.599Z,46.20
2022-08-01T09:32:08.012Z,46.70
2022-08-01T09:34:36.414Z,46.90
2022-08-01T09:37:07.757Z,45.80
2022-08-01T09:39:38.538Z,44.60
2022-08-01T09:42:21.072Z,43.20
2022-08-01T09:44:57.470Z,45.50
2022-08-01T09:47:38.826Z,42.90
2022-08-01T09:50:11.079Z,44.30
2022-08-01T09:52:41.177Z,43.90
2022-08-01T09:55:09.762Z,44.40
2022-08-01T09:57:37.784Z,43.80
2022-08-01T10:00:06.767Z,42.20
2022-08-01T10:02:35.434Z,43.50
2022-08-01T10:05:08.232Z,43.00
2022-08-01T10:07:42.982Z,42.30
2022-08-01T10:10:14.878Z,43.50
2022-08-01T10:12:45.510Z,43.70
2022-08-01T10:15:16.616Z,42.50
2022-08-01T10:17:50.320Z,44.90
2022-08-01T10:20:29.032Z,44.40
2022-08-01T10:23:02.191Z,44.70
2022-08-01T10:25:42.208Z,43.70
2022-08-01T10:28:18.167Z,44.70
2022-08-01T10:30:49.747Z,43.40
2022-08-01T10:33:51.935Z,43.90
2022-08-01T10:36:08.507Z,42.50
2022-08-01T10:38:37.151Z,43.30
2022-08-01T10:41:08.641Z,44.40
2022-08-01T10:43:37.141Z,44.10
2022-08-01T10:46:05.627Z,43.80
2022-08-01T10:48:40.822Z,44.20
2022-08-01T10:51:18.363Z,44.30
2022-08-01T10:53:50.307Z,42.00
2022-08-01T10:56:26.888Z,43.10
2022-08-01T10:59:06.209Z,42.30
2022-08-01T11:01:37.597Z,44.20
2022-08-01T11:04:11.455Z,44.20
2022-08-01T11:06:44.770Z,43.30
2022-08-01T11:09:39.906Z,43.40
2022-08-01T11:12:13.258Z,44.60
2022-08-01T11:15:02.543Z,43.60
2022-08-01T11:17:37.746Z,44.30
2022-08-01T11:20:10.501Z,44.20
2022-08-01T11:22:57.135Z,45.20
2022-08-01T11:26:03.516Z,44.80
2022-08-01T11:28:30.137Z,45.40
2022-08-01T11:31:18.122Z,46.40
2022-08-01T11:33:50.446Z,45.30
2022-08-01T11:36:32.203Z,46.10
2022-08-01T11:39:14.209Z,44.80
2022-08-01T11:41:44.909Z,46.70
2022-08-01T11:44:15.533Z,46.10
2022-08-01T11:46:51.125Z,47.30
2022-08-01T11:49:29.848Z,46.70
2022-08-01T11:51:59.838Z,47.20
2022-08-01T11:54:35.570Z,46.70
2022-08-01T11:57:05.653Z,47.40
2022-08-01T11:59:41.392Z,48.50
2022-08-01T12:02:30.545Z,47.90
2022-08-01T12:04:59.352Z,47.20
2022-08-01T12:07:28.933Z,46.20
2022-08-01T12:10:01.621Z,47.00
2022-08-01T12:12:30.378Z,46.70
2022-08-01T12:15:00.396Z,46.70
2022-08-01T12:17:35.583Z,44.40
2022-08-01T12:20:04.239Z,45.40
2022-08-01T12:22:32.260Z,45.20
2022-08-01T12:25:07.332Z,44.40
2022-08-01T12:27:35.597Z,43.50
2022-08-01T12:30:06.723Z,45.80
2022-08-01T12:32:36.810Z,45.40
2022-08-01T12:35:05.709Z,45.00
2022-08-01T12:37:34.262Z,45.10
2022-08-01T12:40:02.290Z,44.80
2022-08-01T12:42:30.403Z,45.90
2022-08-01T12:44:58.618Z,44.80
2022-08-01T12:47:28.049Z,43.90
2022-08-01T12:49:56.097Z,43.10
2022-08-01T12:52:26.631Z,43.40
2022-08-01T12:55:19.440Z,44.30
2022-08-01T12:57:50.964Z,43.90
2022-08-01T13:00:21.039Z,44.10
2022-08-01T13:02:50.984Z,42.70
2022-08-01T13:05:19.264Z,42.70
2022-08-01T13:07:48.721Z,43.90
2022-08-01T13:10:25.818Z,41.40
2022-08-01T13:12:55.022Z,43.70
2022-08-01T13:15:24.522Z,43.30
2022-08-01T16:27:51.353Z,51.00
2022-08-01T16:30:19.377Z,51.60
2022-08-01T16:32:51.753Z,51.60
2022-08-01T16:35:21.712Z,52.10
2022-08-01T16:37:52.551Z,52.20
2022-08-01T16:40:20.558Z,52.40
2022-08-01T16:42:50.998Z,52.70
2022-08-01T16:45:21.271Z,52.10
2022-08-01T16:47:49.513Z,51.60
2022-08-01T16:50:17.583Z,51.60
2022-08-01T16:52:46.322Z,49.30
2022-08-01T16:55:14.329Z,48.10
2022-08-01T16:57:42.722Z,48.60
2022-08-01T17:00:14.837Z,49.40
2022-08-01T17:02:49.541Z,49.50
2022-08-01T17:05:17.653Z,50.80
2022-08-01T17:07:45.639Z,50.90
2022-08-01T17:10:14.233Z,50.10
2022-08-01T17:12:42.263Z,50.60
2022-08-01T17:15:10.673Z,51.30
2022-08-01T17:17:40.098Z,50.20
2022-08-01T17:20:09.293Z,50.90
2022-08-01T17:22:37.311Z,52.10
2022-08-01T17:25:05.630Z,52.10
2022-08-01T17:27:33.630Z,51.70
2022-08-01T17:30:01.673Z,53.00
2022-08-01T17:32:29.649Z,55.30
2022-08-01T17:34:59.240Z,56.40
2022-08-01T17:37:27.218Z,58.00
2022-08-01T17:39:55.206Z,57.40
2022-08-01T17:42:25.265Z,57.30
2022-08-01T17:44:54.281Z,58.10
2022-08-01T17:47:49.330Z,57.50
2022-08-01T17:50:14.533Z,58.40
2022-08-01T17:52:42.606Z,61.90
2022-08-01T17:55:55.333Z,64.70
2022-08-01T17:57:58.769Z,66.90
2022-08-01T18:00:26.769Z,69.60
2022-08-01T18:02:54.741Z,70.60
2022-08-01T18:05:37.145Z,71.50
2022-08-01T18:08:05.873Z,71.00
2022-08-01T18:10:33.877Z,72.40
2022-08-01T18:13:01.985Z,71.00
2022-08-01T18:15:30.193Z,72.40
2022-08-01T18:18:01.712Z,73.30
2022-08-01T18:20:31.254Z,75.00
2022-08-01T18:22:59.265Z,75.00
2022-08-01T18:25:29.349Z,75.00
2022-08-01T18:28:22.710Z,77.10
2022-08-01T18:30:45.399Z,77.20
2022-08-01T18:33:13.438Z,77.70
2022-08-01T18:35:53.548Z,77.90
2022-08-01T18:38:24.072Z,77.80
2022-08-01T18:40:52.316Z,79.60
2022-08-01T18:43:20.418Z,80.20
2022-08-01T18:45:48.451Z,81.00
2022-08-01T18:48:16.667Z,81.70
2022-08-01T18:50:47.930Z,81.40
2022-08-01T18:53:15.869Z,83.60
2022-08-01T18:55:43.898Z,82.20
2022-08-01T18:58:11.874Z,83.30
2022-08-01T19:00:40.911Z,83.80
2022-08-01T19:03:09.810Z,84.50
2022-08-01T19:05:38.448Z,84.50
2022-08-01T19:08:08.369Z,85.20
2022-08-01T19:10:36.678Z,85.50
2022-08-01T19:13:04.980Z,85.70
2022-08-01T19:15:32.980Z,85.80
2022-08-01T19:18:01.956Z,86.30
2022-08-01T19:20:29.989Z,85.20
2022-08-01T19:22:57.963Z,85.70
2022-08-01T19:25:27.838Z,86.90
2022-08-01T19:27:57.513Z,86.90
2022-08-01T19:30:25.667Z,88.70
2022-08-01T19:32:55.081Z,89.40
2022-08-01T19:35:23.920Z,89.40
2022-08-01T19:37:54.088Z,89.30
2022-08-01T19:40:27.612Z,90.00
2022-08-01T19:42:57.917Z,90.30
2022-08-01T19:45:26.179Z,90.50
2022-08-01T19:47:56.769Z,90.60
2022-08-01T19:50:26.369Z,90.80
2022-08-01T19:52:55.477Z,90.70
2022-08-01T19:55:24.537Z,91.00
2022-08-01T20:00:43.806Z,91.40
2022-08-01T20:03:11.934Z,92.10
2022-08-01T20:05:40.107Z,93.40
2022-08-01T20:08:08.484Z,93.50
2022-08-01T20:10:38.154Z,94.00
2022-08-01T20:13:06.356Z,93.60
2022-08-01T20:15:34.386Z,93.70
2022-08-01T20:18:03.747Z,94.10
2022-08-01T20:20:32.981Z,94.00
2022-08-01T20:23:04.119Z,95.10
2022-08-01T20:25:39.823Z,95.00
2022-08-01T20:28:10.097Z,95.30
2022-08-01T20:30:38.624Z,96.60
2022-08-01T20:33:08.442Z,97.70
2022-08-01T20:35:53.260Z,98.60
2022-08-01T20:38:23.042Z,99.40
2022-08-01T20:40:52.077Z,99.90
2022-08-01T20:43:21.467Z,99.90
2022-08-01T20:45:50.411Z,99.90
2022-08-01T20:48:20.425Z,99.90
2022-08-01T20:51:06.141Z,99.90
2022-08-01T20:53:36.718Z,99.90
2022-08-01T20:56:07.528Z,99.90
2022-08-01T20:58:38.692Z,99.90
2022-08-01T21:01:09.760Z,99.90
2022-08-01T21:03:42.338Z,99.90
2022-08-01T21:06:14.365Z,99.90
2022-08-01T21:08:43.429Z,99.90
2022-08-01T21:11:14.269Z,99.90
2022-08-01T21:13:43.048Z,99.90
2022-08-01T21:16:24.259Z,99.90
2022-08-01T21:21:50.019Z,99.90
2022-08-01T21:24:18.943Z,99.90
2022-08-01T21:26:47.069Z,99.90
2022-08-01T21:29:15.389Z,99.90
2022-08-01T21:31:43.429Z,99.90
2022-08-01T21:34:13.451Z,99.90
2022-08-01T21:36:45.189Z,99.90
2022-08-01T21:39:13.692Z,99.90
2022-08-01T21:42:04.766Z,99.90
2022-08-01T21:44:32.226Z,99.90
2022-08-01T21:47:00.729Z,99.90
2022-08-01T21:49:30.343Z,99.90
2022-08-01T21:52:00.982Z,99.90
2022-08-01T21:54:30.185Z,99.90
2022-08-01T21:57:02.778Z,99.90
2022-08-01T21:59:37.089Z,99.90
2022-08-01T22:02:10.252Z,99.90
2022-08-01T22:04:42.698Z,99.90
2022-08-01T22:07:11.730Z,99.90
2022-08-01T22:09:41.006Z,99.90
2022-08-01T22:12:11.584Z,99.90
2022-08-01T22:14:43.366Z,99.90
2022-08-01T22:17:12.034Z,99.90
2022-08-01T22:19:44.840Z,99.90
2022-08-01T22:22:50.389Z,99.90
2022-08-01T22:25:02.411Z,99.90
2022-08-01T22:28:06.298Z,99.90
2022-08-01T22:30:18.728Z,99.90
2022-08-01T22:33:07.343Z,99.90
2022-08-01T22:35:39.827Z,99.90
2022-08-01T22:38:09.848Z,99.90
2022-08-01T22:40:40.713Z,99.90
2022-08-01T22:43:12.675Z,99.90
2022-08-01T22:45:43.698Z,99.90
2022-08-01T22:48:15.127Z,99.90
2022-08-01T22:50:46.664Z,99.90
2022-08-01T22:53:18.574Z,99.90
2022-08-01T22:55:58.488Z,99.90
2022-08-01T22:58:30.596Z,99.90
2022-08-01T23:01:02.346Z,99.90
2022-08-01T23:03:30.914Z,99.90
2022-08-01T23:06:04.029Z,99.90
2022-08-01T23:08:32.888Z,99.90
2022-08-01T23:11:01.234Z,99.90
2022-08-01T23:13:29.418Z,99.90
2022-08-01T23:15:58.108Z,99.90
2022-08-01T23:18:26.507Z,99.90
2022-08-01T23:20:58.010Z,99.90
2022-08-01T23:23:31.129Z,99.90
2022-08-01T23:26:00.217Z,99.90
2022-08-01T23:28:28.795Z,99.90
2022-08-01T23:30:57.178Z,99.90
2022-08-01T23:33:25.166Z,99.90
2022-08-01T23:35:53.208Z,99.90
2022-08-01T23:38:21.242Z,99.90
2022-08-01T23:40:51.094Z,99.90
2022-08-01T23:43:19.241Z,99.90
2022-08-01T23:46:04.611Z,99.90
2022-08-01T23:48:34.187Z,99.90
2022-08-01T23:51:02.445Z,99.90
2022-08-01T23:53:31.234Z,99.90
2022-08-01T23:56:02.713Z,99.90
2022-08-01T23:58:31.206Z,99.90
